Time;durP1;ratioP1;P1;durP2;ratioP2;P2;SDS_P1;SDS_P2;PMS_P1;PMS_P2;Temp;Humidity;BMP_temperature;BMP_pressure;BME280_temperature;BME280_humidity;BME280_pressure;Samples;Min_cycle;Max_cycle;Signal;HPM_P1;HPM_P2
2021/05/23 00:02:24;;;;;;;2.53;0.85;;;13.50;93.10;;;;;;4995087;28;20057;-80
2021/05/23 00:08:33;;;;;;;2.22;0.60;;;13.40;93.40;;;;;;4994625;28;20054;-80
2021/05/23 00:11:03;;;;;;;4.07;1.15;;;13.40;93.40;;;;;;4986616;28;20086;-81
2021/05/23 00:13:32;;;;;;;2.70;0.70;;;13.40;93.50;;;;;;4987027;28;20388;-80
2021/05/23 00:16:02;;;;;;;1.33;0.40;;;13.40;93.60;;;;;;4987153;28;20050;-80
2021/05/23 00:18:32;;;;;;;1.90;0.70;;;13.40;93.70;;;;;;4987117;28;20066;-80
2021/05/23 00:20:59;;;;;;;1.95;0.45;;;13.30;93.60;;;;;;4978067;28;20085;-80
2021/05/23 00:23:26;;;;;;;2.58;0.70;;;13.30;93.60;;;;;;4975678;28;20153;-80
2021/05/23 00:25:54;;;;;;;2.25;0.70;;;13.30;93.70;;;;;;4975347;28;20082;-79
2021/05/23 00:28:21;;;;;;;2.47;0.70;;;13.30;93.70;;;;;;4975403;28;20090;-79
2021/05/23 00:30:48;;;;;;;2.25;0.40;;;13.30;93.80;;;;;;4975312;28;20126;-79
2021/05/23 00:33:14;;;;;;;1.40;0.60;;;13.30;93.90;;;;;;4974856;28;20129;-79
2021/05/23 00:35:41;;;;;;;1.35;0.50;;;13.40;93.90;;;;;;4975243;28;20082;-80
2021/05/23 00:38:10;;;;;;;1.55;0.50;;;13.40;93.90;;;;;;4974463;28;20093;-79
2021/05/23 00:40:39;;;;;;;1.13;0.50;;;13.40;93.80;;;;;;4975363;28;20085;-80
2021/05/23 00:43:10;;;;;;;1.38;0.50;;;13.30;93.80;;;;;;4975039;28;20074;-79
2021/05/23 00:45:38;;;;;;;2.05;0.60;;;13.30;93.90;;;;;;4958399;28;20090;-79
2021/05/23 00:48:06;;;;;;;2.97;0.75;;;13.30;94.00;;;;;;4975064;28;20060;-79
2021/05/23 00:50:33;;;;;;;3.03;0.63;;;13.30;94.20;;;;;;4974994;28;20550;-79
2021/05/23 00:53:02;;;;;;;1.17;0.50;;;13.30;94.40;;;;;;4974733;28;20109;-80
2021/05/23 00:55:29;;;;;;;1.70;0.55;;;13.20;94.60;;;;;;4974857;28;20134;-79
2021/05/23 00:57:56;;;;;;;1.58;0.70;;;13.20;95.00;;;;;;4976631;28;20074;-79
2021/05/23 01:01:17;;;;;;;1.45;0.50;;;13.10;95.50;;;;;;4976674;28;20046;-79
2021/05/23 01:03:57;;;;;;;1.30;0.70;;;13.00;95.80;;;;;;4964957;28;20231;-79
2021/05/23 01:06:25;;;;;;;2.28;0.70;;;13.00;96.10;;;;;;4985407;28;20101;-79
2021/05/23 01:08:53;;;;;;;1.25;0.40;;;12.90;96.00;;;;;;4957678;28;20548;-79
2021/05/23 01:12:08;;;;;;;1.38;0.57;;;12.90;96.00;;;;;;4974837;28;20053;-79
2021/05/23 01:15:01;;;;;;;1.75;0.65;;;12.90;96.10;;;;;;4974359;28;20061;-80
2021/05/23 01:17:39;;;;;;;2.30;0.70;;;12.80;96.20;;;;;;4960837;28;20126;-80
2021/05/23 01:20:42;;;;;;;1.30;0.65;;;12.80;96.30;;;;;;4974654;28;20086;-80
2021/05/23 01:23:31;;;;;;;2.97;0.68;;;12.80;96.40;;;;;;4974288;28;20133;-79
2021/05/23 01:26:06;;;;;;;1.77;0.68;;;12.70;96.50;;;;;;4974185;28;20054;-80
2021/05/23 01:28:37;;;;;;;2.17;0.70;;;12.60;96.60;;;;;;4974468;28;20069;-80
2021/05/23 01:31:08;;;;;;;1.83;0.82;;;12.60;96.60;;;;;;4974396;28;20457;-80
2021/05/23 01:33:36;;;;;;;2.13;0.68;;;12.60;96.70;;;;;;4984792;28;20143;-79
2021/05/23 01:36:04;;;;;;;2.05;0.65;;;12.60;96.70;;;;;;4984737;28;20049;-79
2021/05/23 01:38:31;;;;;;;1.67;0.60;;;12.60;96.80;;;;;;4980293;28;20042;-79
2021/05/23 01:41:04;;;;;;;2.25;0.60;;;12.60;96.80;;;;;;4974108;28;20081;-80
2021/05/23 01:43:32;;;;;;;2.70;0.60;;;12.60;96.90;;;;;;4974746;28;20370;-80
2021/05/23 01:45:59;;;;;;;2.30;0.93;;;12.50;96.90;;;;;;4974225;28;20055;-80
2021/05/23 01:48:26;;;;;;;1.35;0.50;;;12.50;97.00;;;;;;4973924;28;20495;-80
2021/05/23 01:50:53;;;;;;;2.20;0.57;;;12.50;97.40;;;;;;4974116;28;20054;-80
2021/05/23 01:53:20;;;;;;;1.50;0.60;;;12.50;97.20;;;;;;4974113;28;20081;-80
2021/05/23 01:55:47;;;;;;;2.38;0.60;;;12.50;97.50;;;;;;4974098;28;20074;-80
2021/05/23 01:58:14;;;;;;;1.48;0.57;;;12.50;97.30;;;;;;4974381;28;20062;-80
2021/05/23 02:00:44;;;;;;;1.73;0.70;;;12.50;97.40;;;;;;4974247;28;20082;-80
2021/05/23 02:03:12;;;;;;;1.90;0.60;;;12.40;97.40;;;;;;4973804;28;20138;-80
2021/05/23 02:05:44;;;;;;;1.48;0.60;;;12.40;97.40;;;;;;4974163;28;20085;-80
2021/05/23 02:08:12;;;;;;;1.80;0.40;;;12.40;97.40;;;;;;4956928;28;20141;-79
2021/05/23 02:10:39;;;;;;;1.85;0.60;;;12.40;97.40;;;;;;4974108;28;20078;-80
2021/05/23 02:13:07;;;;;;;1.98;0.50;;;12.40;97.60;;;;;;4973871;28;20079;-80
2021/05/23 02:15:36;;;;;;;1.98;0.63;;;12.30;97.60;;;;;;4973965;28;20129;-80
2021/05/23 02:18:04;;;;;;;0.88;0.38;;;12.30;97.60;;;;;;4973792;28;20558;-80
2021/05/23 02:20:33;;;;;;;2.20;0.73;;;12.30;97.70;;;;;;4963534;28;20082;-79
2021/05/23 02:23:01;;;;;;;1.48;0.50;;;12.30;97.80;;;;;;4971786;28;20476;-79
2021/05/23 02:25:30;;;;;;;2.53;0.75;;;12.20;97.70;;;;;;4973843;28;20504;-79
2021/05/23 02:28:01;;;;;;;0.82;0.50;;;12.30;97.90;;;;;;4974015;28;20134;-80
2021/05/23 02:30:30;;;;;;;1.85;0.65;;;12.20;98.00;;;;;;4957191;28;20133;-79
2021/05/23 02:32:58;;;;;;;3.67;0.88;;;12.20;98.00;;;;;;4973709;28;20090;-80
2021/05/23 02:35:27;;;;;;;1.08;0.50;;;12.20;98.00;;;;;;4973393;28;20097;-79
2021/05/23 02:37:54;;;;;;;0.90;0.45;;;12.20;98.00;;;;;;4970710;28;20102;-80
2021/05/23 02:40:24;;;;;;;1.63;0.60;;;12.20;98.10;;;;;;4972872;28;20085;-80
2021/05/23 02:42:51;;;;;;;1.38;0.50;;;12.20;98.20;;;;;;4973684;28;20053;-80
2021/05/23 02:45:19;;;;;;;0.90;0.40;;;12.10;98.20;;;;;;4958463;28;20125;-79
2021/05/23 02:47:47;;;;;;;1.80;0.60;;;12.20;98.30;;;;;;4972504;28;20078;-79
2021/05/23 02:50:17;;;;;;;2.20;0.65;;;12.20;98.40;;;;;;4973436;28;20046;-79
2021/05/23 02:52:44;;;;;;;2.85;0.70;;;12.10;98.40;;;;;;4973505;28;20540;-78
2021/05/23 02:55:13;;;;;;;2.30;0.63;;;12.00;98.60;;;;;;4973385;28;20083;-80
2021/05/23 02:57:41;;;;;;;2.35;0.60;;;12.00;98.60;;;;;;4973651;28;20507;-79
2021/05/23 03:00:12;;;;;;;2.67;0.60;;;11.90;98.60;;;;;;4974320;28;20049;-80
2021/05/23 03:02:39;;;;;;;2.22;0.70;;;11.80;98.60;;;;;;4975637;28;20137;-80
2021/05/23 03:05:08;;;;;;;2.45;0.55;;;11.80;98.50;;;;;;4974067;28;20133;-80
2021/05/23 03:07:39;;;;;;;3.10;0.40;;;11.70;98.70;;;;;;4973478;28;20540;-80
2021/05/23 03:10:09;;;;;;;0.73;0.40;;;11.60;98.60;;;;;;4974013;28;20130;-80
2021/05/23 03:12:36;;;;;;;3.28;0.50;;;11.60;98.80;;;;;;4974507;28;20125;-80
2021/05/23 03:15:03;;;;;;;1.23;0.55;;;11.60;98.90;;;;;;4974470;28;20174;-80
2021/05/23 03:17:30;;;;;;;1.90;0.50;;;11.60;99.00;;;;;;4974765;28;20126;-80
2021/05/23 03:19:57;;;;;;;1.05;0.50;;;11.60;99.00;;;;;;4974858;28;20094;-80
2021/05/23 03:22:23;;;;;;;1.48;0.47;;;11.60;99.10;;;;;;4973300;28;20129;-79
2021/05/23 03:24:51;;;;;;;1.30;0.40;;;11.60;98.80;;;;;;4973208;28;20130;-79
2021/05/23 03:27:18;;;;;;;2.13;0.43;;;11.60;98.70;;;;;;4959074;28;20134;-80
2021/05/23 03:29:44;;;;;;;2.00;0.40;;;11.60;98.60;;;;;;4974217;28;20495;-80
2021/05/23 03:32:11;;;;;;;1.27;0.45;;;11.60;98.20;;;;;;4974233;28;20129;-80
2021/05/23 03:34:38;;;;;;;0.88;0.40;;;11.60;98.20;;;;;;4972982;28;20137;-80
2021/05/23 03:37:04;;;;;;;0.85;0.40;;;11.60;98.40;;;;;;4972684;28;20141;-80
2021/05/23 03:39:31;;;;;;;0.82;0.50;;;11.60;98.50;;;;;;4973862;28;20090;-80
2021/05/23 03:41:58;;;;;;;1.33;0.40;;;11.70;98.70;;;;;;4973229;28;20117;-80
2021/05/23 03:44:25;;;;;;;1.10;0.35;;;11.80;98.80;;;;;;4973955;28;20082;-80
2021/05/23 03:46:52;;;;;;;0.95;0.40;;;11.80;98.70;;;;;;4974726;28;20137;-80
2021/05/23 03:49:19;;;;;;;1.55;0.70;;;11.80;98.70;;;;;;4959762;28;20043;-80
2021/05/23 03:51:45;;;;;;;1.13;0.47;;;11.90;98.40;;;;;;4973651;28;20129;-79
2021/05/23 03:54:12;;;;;;;0.90;0.45;;;11.90;98.20;;;;;;4973643;28;20069;-80
2021/05/23 03:56:39;;;;;;;1.20;0.35;;;11.90;98.30;;;;;;4972628;28;20440;-81
2021/05/23 03:59:06;;;;;;;0.93;0.30;;;11.80;97.90;;;;;;4973377;28;20149;-81
2021/05/23 04:01:33;;;;;;;2.85;0.63;;;11.80;97.70;;;;;;4974933;28;20125;-80
2021/05/23 04:04:01;;;;;;;1.95;0.60;;;11.80;97.60;;;;;;4976080;28;20133;-81
2021/05/23 04:06:27;;;;;;;0.85;0.30;;;11.70;97.60;;;;;;4976040;28;20047;-81
2021/05/23 04:08:54;;;;;;;2.40;0.50;;;11.70;97.60;;;;;;4975654;28;20475;-82
2021/05/23 04:11:25;;;;;;;0.85;0.30;;;11.70;97.70;;;;;;4975715;28;20127;-82
2021/05/23 04:13:51;;;;;;;0.70;0.30;;;11.70;97.70;;;;;;4975788;28;20133;-81
2021/05/23 04:16:19;;;;;;;1.20;0.40;;;11.70;98.00;;;;;;4975761;28;20078;-81
2021/05/23 04:18:45;;;;;;;1.52;0.63;;;11.70;97.60;;;;;;4975843;28;20131;-82
2021/05/23 04:21:12;;;;;;;1.30;0.40;;;11.60;97.50;;;;;;4975511;28;20153;-81
2021/05/23 04:23:39;;;;;;;1.25;0.40;;;11.70;97.60;;;;;;4975518;28;20134;-81
2021/05/23 04:26:07;;;;;;;0.80;0.30;;;11.60;97.80;;;;;;4977478;28;20466;-81
2021/05/23 04:28:33;;;;;;;0.82;0.38;;;11.60;97.90;;;;;;4975803;28;20082;-80
2021/05/23 04:31:00;;;;;;;1.55;0.40;;;11.60;98.10;;;;;;4977064;28;20133;-80
2021/05/23 04:33:28;;;;;;;1.13;0.40;;;11.60;98.10;;;;;;4976931;28;20046;-79
2021/05/23 04:35:54;;;;;;;2.00;0.50;;;11.60;98.30;;;;;;4977408;28;20097;-82
2021/05/23 04:38:21;;;;;;;1.77;0.43;;;11.60;98.40;;;;;;4966857;28;20079;-81
2021/05/23 04:40:48;;;;;;;1.25;0.40;;;11.60;98.40;;;;;;4959449;28;20134;-81
2021/05/23 04:43:14;;;;;;;0.70;0.30;;;11.80;98.50;;;;;;4974651;28;20137;-81
2021/05/23 04:45:41;;;;;;;1.70;0.70;;;11.60;98.50;;;;;;4975559;28;20125;-80
2021/05/23 04:48:09;;;;;;;2.03;0.50;;;11.60;98.70;;;;;;4975386;28;20137;-80
2021/05/23 04:50:36;;;;;;;1.45;0.45;;;11.60;98.70;;;;;;4974778;28;20156;-80
2021/05/23 04:53:04;;;;;;;2.03;0.57;;;11.60;98.80;;;;;;4974751;28;20138;-81
2021/05/23 04:55:31;;;;;;;1.00;0.40;;;11.60;98.80;;;;;;4974900;28;20050;-80
2021/05/23 04:57:58;;;;;;;1.88;0.52;;;11.60;98.90;;;;;;4975148;28;20085;-80
2021/05/23 05:00:25;;;;;;;1.30;0.40;;;11.60;99.00;;;;;;4974841;28;20082;-80
2021/05/23 05:02:51;;;;;;;0.88;0.40;;;11.50;99.00;;;;;;4973118;28;20200;-81
2021/05/23 05:05:19;;;;;;;1.02;0.40;;;11.50;99.00;;;;;;4974290;28;20078;-79
2021/05/23 05:07:46;;;;;;;2.20;0.57;;;11.50;98.90;;;;;;4974684;28;20563;-79
2021/05/23 05:10:13;;;;;;;1.45;0.52;;;11.50;98.70;;;;;;4974986;28;20121;-80
2021/05/23 05:12:41;;;;;;;1.38;0.57;;;11.50;99.00;;;;;;4976336;28;20050;-95
2021/05/23 05:15:10;;;;;;;1.67;0.40;;;11.60;98.60;;;;;;4975422;28;20134;-93
2021/05/23 05:17:37;;;;;;;1.05;0.38;;;11.50;98.50;;;;;;4974682;28;20133;-92
2021/05/23 05:20:06;;;;;;;1.50;0.55;;;11.50;98.50;;;;;;4976249;28;20074;-94
2021/05/23 05:22:33;;;;;;;2.42;0.50;;;11.50;98.60;;;;;;4970473;28;20560;-94
2021/05/23 05:25:00;;;;;;;1.05;0.40;;;11.60;98.70;;;;;;4963285;28;20137;-95
2021/05/23 05:27:27;;;;;;;2.00;0.60;;;11.60;98.70;;;;;;4988227;28;20069;-96
2021/05/23 05:29:54;;;;;;;2.15;0.50;;;11.60;98.70;;;;;;4977216;28;20492;-96
2021/05/23 05:32:21;;;;;;;0.70;0.40;;;11.70;98.60;;;;;;4975173;28;20519;-96
2021/05/23 05:34:48;;;;;;;1.30;0.40;;;11.70;98.50;;;;;;4982465;28;20046;-94
2021/05/23 05:37:14;;;;;;;2.00;0.50;;;11.70;98.30;;;;;;4986675;28;20137;-93
2021/05/23 05:39:41;;;;;;;1.80;0.73;;;11.80;98.10;;;;;;4975146;28;20129;-94
2021/05/23 05:42:08;;;;;;;1.40;0.40;;;11.80;97.90;;;;;;4958679;28;20121;-88
2021/05/23 05:44:35;;;;;;;1.17;0.52;;;11.80;98.10;;;;;;4964151;28;20138;-96
2021/05/23 05:47:02;;;;;;;1.48;0.45;;;11.80;98.10;;;;;;4954580;28;20184;-87
2021/05/23 05:49:29;;;;;;;1.25;0.38;;;11.80;97.60;;;;;;4970142;28;20476;-86
2021/05/23 05:51:57;;;;;;;1.10;0.40;;;11.80;97.50;;;;;;4974386;28;20082;-88
2021/05/23 05:54:23;;;;;;;0.95;0.35;;;11.80;97.30;;;;;;4974713;28;20051;-88
2021/05/23 05:56:50;;;;;;;1.88;0.45;;;11.80;97.10;;;;;;4974002;28;20046;-87
2021/05/23 05:59:17;;;;;;;2.42;0.68;;;11.80;97.00;;;;;;4974463;28;20055;-87
2021/05/23 06:01:44;;;;;;;1.42;0.40;;;11.80;97.00;;;;;;4974355;28;20134;-87
2021/05/23 06:04:11;;;;;;;1.95;0.40;;;11.80;97.10;;;;;;4974111;28;20101;-87
2021/05/23 06:06:38;;;;;;;2.05;0.40;;;11.80;97.00;;;;;;4973110;28;20050;-86
2021/05/23 06:09:05;;;;;;;1.67;0.50;;;11.80;97.10;;;;;;4974769;28;20082;-87
2021/05/23 06:11:32;;;;;;;0.82;0.43;;;11.80;97.20;;;;;;4974306;28;20086;-91
2021/05/23 06:13:59;;;;;;;0.80;0.40;;;11.70;97.30;;;;;;4972415;28;20070;-85
2021/05/23 06:16:27;;;;;;;1.17;0.50;;;11.70;97.40;;;;;;4956234;28;20565;-90
2021/05/23 06:18:55;;;;;;;1.38;0.40;;;11.80;97.50;;;;;;4974501;28;20085;-87
2021/05/23 06:21:22;;;;;;;0.77;0.40;;;11.80;97.60;;;;;;4987166;28;20078;-91
2021/05/23 06:23:49;;;;;;;1.73;0.40;;;11.80;97.60;;;;;;4974990;28;20146;-90
2021/05/23 06:26:15;;;;;;;1.83;0.43;;;11.90;97.50;;;;;;4983720;28;20078;-91
2021/05/23 06:28:42;;;;;;;0.80;0.35;;;12.00;97.60;;;;;;4985061;28;20105;-96
2021/05/23 06:31:09;;;;;;;1.02;0.40;;;12.00;97.50;;;;;;4966190;28;20129;-95
2021/05/23 06:33:37;;;;;;;1.60;0.40;;;12.00;97.60;;;;;;4975267;28;20141;-93
2021/05/23 06:36:05;;;;;;;2.20;0.60;;;12.10;97.40;;;;;;4978164;28;20141;-94
2021/05/23 06:38:32;;;;;;;2.40;0.47;;;12.10;97.30;;;;;;4969437;28;20051;-93
2021/05/23 06:40:59;;;;;;;2.22;0.50;;;12.10;97.30;;;;;;4995676;28;20047;-91
2021/05/23 06:43:25;;;;;;;1.25;0.40;;;12.10;97.30;;;;;;4960518;28;20057;-93
2021/05/23 06:45:52;;;;;;;1.08;0.40;;;12.20;97.20;;;;;;4995185;28;20038;-94
2021/05/23 06:48:20;;;;;;;0.90;0.40;;;12.10;97.20;;;;;;4983495;28;20050;-95
2021/05/23 06:50:48;;;;;;;1.85;0.40;;;12.10;96.90;;;;;;4980203;28;20089;-95
2021/05/23 06:53:15;;;;;;;0.70;0.38;;;12.10;97.10;;;;;;4970191;28;20046;-95
2021/05/23 06:55:42;;;;;;;1.58;0.50;;;12.10;97.20;;;;;;4972675;28;20074;-95
2021/05/23 06:58:08;;;;;;;1.15;0.35;;;12.10;97.20;;;;;;4978512;28;20058;-94
2021/05/23 07:00:35;;;;;;;1.58;0.70;;;12.10;97.20;;;;;;4981061;28;20129;-94
2021/05/23 07:03:02;;;;;;;1.88;0.63;;;12.10;97.20;;;;;;4971975;28;20389;-94
2021/05/23 07:05:29;;;;;;;2.20;0.50;;;12.10;96.90;;;;;;4977889;28;20054;-85
2021/05/23 07:07:56;;;;;;;0.90;0.38;;;12.00;97.30;;;;;;4978696;28;20150;-93
2021/05/23 07:10:24;;;;;;;1.60;0.47;;;12.00;96.80;;;;;;4981358;28;20070;-96
2021/05/23 07:12:50;;;;;;;1.30;0.40;;;12.00;96.80;;;;;;4970358;28;20051;-84
2021/05/23 07:15:17;;;;;;;1.30;0.40;;;12.10;97.10;;;;;;4976887;28;20134;-85
2021/05/23 07:17:44;;;;;;;1.38;0.35;;;12.10;96.90;;;;;;4977154;28;20129;-85
2021/05/23 07:20:13;;;;;;;1.08;0.40;;;12.10;96.60;;;;;;4980413;28;20132;-86
2021/05/23 07:22:40;;;;;;;1.27;0.50;;;12.10;97.00;;;;;;4977217;28;20531;-86
2021/05/23 07:25:10;;;;;;;0.75;0.30;;;12.10;96.80;;;;;;4976961;28;20047;-86
2021/05/23 07:27:36;;;;;;;1.90;0.50;;;12.20;96.90;;;;;;4977197;28;20055;-86
2021/05/23 07:30:05;;;;;;;2.10;0.65;;;12.20;96.30;;;;;;4976804;28;20480;-86
2021/05/23 07:32:31;;;;;;;1.58;0.50;;;12.30;95.90;;;;;;4976638;28;20054;-89
2021/05/23 07:34:58;;;;;;;1.70;0.65;;;12.30;95.80;;;;;;4959949;28;20125;-89
2021/05/23 07:37:25;;;;;;;2.05;0.57;;;12.30;96.00;;;;;;4975547;28;20058;-87
2021/05/23 07:39:52;;;;;;;1.08;0.40;;;12.40;95.70;;;;;;4979485;28;20416;-87
2021/05/23 07:42:19;;;;;;;2.72;0.55;;;12.50;95.50;;;;;;4972180;28;20079;-88
2021/05/23 07:44:46;;;;;;;1.88;0.55;;;12.50;94.90;;;;;;4977302;28;20074;-89
2021/05/23 07:47:13;;;;;;;1.40;0.30;;;12.40;94.60;;;;;;4971607;28;20070;-88
2021/05/23 07:49:42;;;;;;;1.60;0.50;;;12.60;94.70;;;;;;4988926;28;20125;-88
2021/05/23 07:52:10;;;;;;;1.80;0.40;;;12.70;94.70;;;;;;4980795;28;20058;-88
2021/05/23 07:54:37;;;;;;;1.52;0.60;;;12.70;94.40;;;;;;4978290;28;20150;-90
2021/05/23 07:57:05;;;;;;;1.42;0.50;;;12.80;94.60;;;;;;4978150;28;20134;-88
2021/05/23 07:59:33;;;;;;;1.05;0.40;;;12.90;94.40;;;;;;4976784;28;20078;-90
2021/05/23 08:02:00;;;;;;;1.58;0.50;;;13.00;94.40;;;;;;4959532;28;20088;-86
2021/05/23 08:04:27;;;;;;;1.65;0.60;;;12.90;94.50;;;;;;4976562;28;20076;-86
2021/05/23 08:06:53;;;;;;;1.83;0.50;;;13.00;94.70;;;;;;4976035;28;20079;-85
2021/05/23 08:09:23;;;;;;;1.45;0.50;;;13.00;94.50;;;;;;4976497;28;20495;-86
2021/05/23 08:11:49;;;;;;;2.05;0.30;;;13.00;94.30;;;;;;4976710;28;20101;-86
2021/05/23 08:14:17;;;;;;;1.75;0.50;;;12.90;94.70;;;;;;4976978;28;20115;-85
2021/05/23 08:16:45;;;;;;;1.88;0.50;;;12.90;95.10;;;;;;4942985;28;20129;-83
2021/05/23 08:19:11;;;;;;;1.80;0.60;;;12.90;95.40;;;;;;4975895;28;20050;-83
2021/05/23 08:21:38;;;;;;;1.95;0.50;;;12.80;95.20;;;;;;4976192;28;20575;-85
2021/05/23 08:24:07;;;;;;;1.00;0.38;;;12.80;95.00;;;;;;4975730;28;20122;-81
2021/05/23 08:26:34;;;;;;;1.92;0.40;;;12.70;95.60;;;;;;4975753;28;20077;-82
2021/05/23 08:29:01;;;;;;;1.33;0.40;;;12.60;95.10;;;;;;4975527;28;20509;-90
2021/05/23 08:31:27;;;;;;;1.02;0.30;;;12.30;95.60;;;;;;4976396;28;20062;-86
2021/05/23 08:33:55;;;;;;;4.05;0.70;;;12.40;95.90;;;;;;4976064;28;20443;-85
2021/05/23 08:36:22;;;;;;;1.48;0.55;;;12.30;96.30;;;;;;4960327;28;20138;-84
2021/05/23 08:38:49;;;;;;;3.28;0.50;;;12.20;96.60;;;;;;4975784;28;20054;-83
2021/05/23 08:41:17;;;;;;;1.85;0.50;;;12.20;97.00;;;;;;4974824;28;20133;-85
2021/05/23 08:43:44;;;;;;;1.42;0.30;;;12.10;96.70;;;;;;4975693;28;20559;-90
2021/05/23 08:46:10;;;;;;;0.85;0.40;;;12.10;96.80;;;;;;4975072;28;20485;-88
2021/05/23 08:48:38;;;;;;;4.68;1.45;;;12.10;97.10;;;;;;4974590;28;20136;-90
2021/05/23 08:51:07;;;;;;;11.23;5.72;;;12.10;97.00;;;;;;4959103;28;20078;-90
2021/05/23 08:53:33;;;;;;;7.90;2.97;;;12.20;96.80;;;;;;4976002;28;20078;-88
2021/05/23 08:56:00;;;;;;;7.75;3.40;;;12.20;97.00;;;;;;4975931;28;20137;-91
2021/05/23 08:58:27;;;;;;;5.03;1.42;;;12.20;97.30;;;;;;4975018;28;20123;-85
2021/05/23 09:00:55;;;;;;;3.47;1.20;;;12.20;97.60;;;;;;4975150;28;20543;-85
2021/05/23 09:03:23;;;;;;;2.95;0.90;;;12.40;97.90;;;;;;4976046;28;20078;-85
2021/05/23 09:05:55;;;;;;;3.42;0.80;;;12.50;98.30;;;;;;4980079;28;20412;-88
2021/05/23 09:08:26;;;;;;;2.33;0.55;;;12.60;97.10;;;;;;4960291;28;20042;-89
2021/05/23 09:10:56;;;;;;;2.88;0.90;;;12.70;97.00;;;;;;4991166;28;20051;-89
2021/05/23 09:13:32;;;;;;;6.03;2.30;;;12.90;96.60;;;;;;4976023;28;20109;-88
2021/05/23 09:16:01;;;;;;;3.58;0.82;;;13.00;97.00;;;;;;4975236;28;20085;-90
2021/05/23 09:18:41;;;;;;;3.30;0.70;;;13.10;96.90;;;;;;4972340;28;20039;-87
2021/05/23 09:21:08;;;;;;;2.58;0.70;;;13.30;96.40;;;;;;4980324;28;20059;-83
2021/05/23 09:23:46;;;;;;;2.10;0.60;;;13.40;94.70;;;;;;4986246;28;20054;-93
2021/05/23 09:26:20;;;;;;;2.70;0.63;;;13.40;94.10;;;;;;4985737;28;20046;-84
2021/05/23 09:28:47;;;;;;;4.57;0.77;;;13.40;92.80;;;;;;4985163;28;20061;-84
2021/05/23 09:31:17;;;;;;;4.30;0.80;;;13.40;92.20;;;;;;4984540;28;20051;-85
2021/05/23 09:33:47;;;;;;;2.97;0.73;;;13.50;93.00;;;;;;4984446;28;20042;-83
2021/05/23 09:36:16;;;;;;;2.92;0.70;;;13.60;92.80;;;;;;4983692;28;20054;-83
2021/05/23 09:38:56;;;;;;;2.55;0.60;;;13.70;92.80;;;;;;4964229;28;20070;-81
2021/05/23 09:41:27;;;;;;;1.98;0.52;;;13.90;92.60;;;;;;4955896;28;20098;-82
2021/05/23 09:44:10;;;;;;;2.63;0.70;;;14.00;92.30;;;;;;4955191;28;20075;-83
2021/05/23 09:46:36;;;;;;;2.53;0.70;;;14.00;91.40;;;;;;4940334;29;20119;-84
2021/05/23 09:49:03;;;;;;;2.53;0.60;;;13.90;92.20;;;;;;4955173;29;20532;-82
2021/05/23 09:51:30;;;;;;;1.23;0.40;;;13.70;91.80;;;;;;4955251;29;20545;-84
2021/05/23 09:54:00;;;;;;;2.22;0.50;;;13.20;93.00;;;;;;4938213;29;20060;-83
2021/05/23 09:56:32;;;;;;;1.48;0.52;;;12.70;94.30;;;;;;4967535;28;20528;-81
2021/05/23 09:58:59;;;;;;;1.77;0.50;;;12.30;95.40;;;;;;4970629;28;20043;-82
2021/05/23 10:01:28;;;;;;;1.52;0.40;;;12.10;96.30;;;;;;4960635;28;20054;-84
2021/05/23 10:03:57;;;;;;;2.10;0.35;;;12.00;96.70;;;;;;4961846;28;20053;-86
2021/05/23 10:06:27;;;;;;;2.47;0.70;;;12.00;97.00;;;;;;4963826;28;20457;-83
2021/05/23 10:08:54;;;;;;;1.52;0.60;;;11.90;97.00;;;;;;4967520;28;20083;-82
2021/05/23 10:11:22;;;;;;;2.05;0.50;;;12.00;97.30;;;;;;4971189;28;20047;-83
2021/05/23 10:13:49;;;;;;;0.52;0.28;;;12.00;96.60;;;;;;4968901;28;20085;-82
2021/05/23 10:16:17;;;;;;;1.38;0.30;;;12.10;96.80;;;;;;4978179;28;20089;-83
2021/05/23 10:18:45;;;;;;;1.65;0.43;;;12.20;97.10;;;;;;4965938;28;20078;-86
2021/05/23 10:21:12;;;;;;;0.82;0.40;;;12.30;97.40;;;;;;4977090;28;20078;-81
2021/05/23 10:23:46;;;;;;;1.25;0.50;;;12.50;96.40;;;;;;4966986;28;20087;-88
2021/05/23 10:26:14;;;;;;;2.38;0.60;;;12.60;96.90;;;;;;4970045;28;20082;-85
2021/05/23 10:28:45;;;;;;;1.45;0.40;;;12.70;97.10;;;;;;4975643;28;20047;-94
2021/05/23 10:31:12;;;;;;;2.58;0.60;;;12.90;97.30;;;;;;4966876;28;20095;-83
2021/05/23 10:33:50;;;;;;;1.50;0.60;;;13.10;97.60;;;;;;4974729;28;20075;-87
2021/05/23 10:36:29;;;;;;;1.50;0.55;;;13.30;97.40;;;;;;4955496;28;20061;-86
2021/05/23 10:38:56;;;;;;;2.13;0.60;;;13.50;97.00;;;;;;4972620;28;20082;-85
2021/05/23 10:41:23;;;;;;;1.35;0.50;;;13.60;96.30;;;;;;4979901;28;20077;-85
2021/05/23 10:43:58;;;;;;;1.85;0.50;;;13.70;95.90;;;;;;4968208;28;20141;-83
2021/05/23 10:46:25;;;;;;;1.55;0.57;;;13.80;96.40;;;;;;4955838;28;20055;-84
2021/05/23 10:48:55;;;;;;;1.88;0.50;;;13.90;95.90;;;;;;4974557;28;20077;-86
2021/05/23 10:51:23;;;;;;;2.13;0.65;;;14.00;95.50;;;;;;4951983;28;20118;-82
2021/05/23 10:53:53;;;;;;;3.20;0.90;;;14.10;95.20;;;;;;4971244;28;20452;-82
2021/05/23 10:56:24;;;;;;;2.75;0.70;;;14.20;95.30;;;;;;4957806;28;20055;-85
2021/05/23 10:59:00;;;;;;;1.90;0.70;;;14.20;93.40;;;;;;4968315;28;20155;-86
2021/05/23 11:01:42;;;;;;;1.98;0.60;;;14.20;92.10;;;;;;4942871;29;20078;-83
2021/05/23 11:04:12;;;;;;;1.95;0.75;;;14.20;92.60;;;;;;4959287;28;20055;-83
2021/05/23 11:06:39;;;;;;;2.28;0.70;;;14.20;92.60;;;;;;4974210;28;20556;-83
2021/05/23 11:09:08;;;;;;;2.42;0.80;;;14.30;92.20;;;;;;4970466;28;20058;-84
2021/05/23 11:11:35;;;;;;;1.92;0.60;;;14.40;92.10;;;;;;4969752;28;20074;-84
2021/05/23 11:14:22;;;;;;;2.38;0.60;;;14.50;91.40;;;;;;4945427;29;20086;-84
2021/05/23 11:16:51;;;;;;;1.75;0.70;;;14.40;90.70;;;;;;4961176;29;20134;-84
2021/05/23 11:19:19;;;;;;;1.65;0.55;;;14.40;91.00;;;;;;4964210;28;20054;-88
2021/05/23 11:21:48;;;;;;;4.97;1.00;;;14.50;89.20;;;;;;4976779;28;20386;-85
2021/05/23 11:24:15;;;;;;;2.28;0.70;;;14.40;89.50;;;;;;4949607;28;20070;-86
2021/05/23 11:26:43;;;;;;;3.33;0.70;;;14.30;90.50;;;;;;4958911;28;20130;-86
2021/05/23 11:29:10;;;;;;;3.70;0.80;;;14.10;90.00;;;;;;4973779;28;20129;-86
2021/05/23 11:31:41;;;;;;;2.88;0.95;;;14.00;90.20;;;;;;4964208;28;20097;-87
2021/05/23 11:34:08;;;;;;;1.88;0.60;;;13.80;90.80;;;;;;4961428;28;20047;-89
2021/05/23 11:36:37;;;;;;;1.45;0.60;;;13.80;91.10;;;;;;4964725;28;20070;-90
2021/05/23 11:39:08;;;;;;;2.63;0.60;;;13.80;91.70;;;;;;4976944;28;20077;-90
2021/05/23 11:41:40;;;;;;;1.52;0.60;;;13.70;91.30;;;;;;4976913;28;20390;-90
2021/05/23 11:44:10;;;;;;;2.10;0.50;;;13.70;91.40;;;;;;4980829;28;20082;-85
2021/05/23 11:46:39;;;;;;;2.50;0.75;;;13.80;91.40;;;;;;4964105;28;20074;-88
2021/05/23 11:49:06;;;;;;;2.20;0.60;;;13.90;91.30;;;;;;4978825;28;20058;-83
2021/05/23 11:51:35;;;;;;;1.88;0.60;;;14.10;89.60;;;;;;4972490;28;20089;-87
2021/05/23 11:54:04;;;;;;;4.22;0.50;;;14.20;90.10;;;;;;4959594;28;20126;-87
2021/05/23 11:56:33;;;;;;;2.03;0.52;;;14.40;89.50;;;;;;4976277;28;20471;-87
2021/05/23 11:59:02;;;;;;;2.22;0.45;;;14.70;89.00;;;;;;4976344;28;20504;-87
2021/05/23 12:01:31;;;;;;;1.88;0.68;;;14.80;84.90;;;;;;4959480;28;20134;-85
2021/05/23 12:04:01;;;;;;;1.58;0.40;;;15.00;83.20;;;;;;4973359;28;20054;-86
2021/05/23 12:06:30;;;;;;;1.83;0.60;;;15.10;81.00;;;;;;4978784;28;20297;-86
2021/05/23 12:09:11;;;;;;;1.50;0.50;;;15.20;77.90;;;;;;4977174;28;20082;-85
2021/05/23 12:11:46;;;;;;;1.80;0.50;;;15.30;80.30;;;;;;4975687;28;20464;-87
2021/05/23 12:14:25;;;;;;;2.45;0.90;;;15.50;78.10;;;;;;4976524;28;20085;-89
2021/05/23 12:17:01;;;;;;;2.75;0.60;;;15.50;79.30;;;;;;4976638;28;20095;-87
2021/05/23 12:19:48;;;;;;;2.35;0.80;;;15.60;77.70;;;;;;4976274;28;20043;-87
2021/05/23 12:22:20;;;;;;;2.80;0.90;;;15.60;78.70;;;;;;4975076;28;20523;-88
2021/05/23 12:24:47;;;;;;;3.05;0.93;;;15.70;78.60;;;;;;4975238;28;20046;-87
2021/05/23 12:27:28;;;;;;;2.10;0.63;;;15.70;78.40;;;;;;4974005;28;20475;-86
2021/05/23 12:30:07;;;;;;;1.98;0.60;;;15.80;78.10;;;;;;4973117;28;20493;-86
2021/05/23 12:32:41;;;;;;;2.20;0.70;;;15.90;77.80;;;;;;4976822;28;20125;-87
2021/05/23 12:35:16;;;;;;;2.72;0.70;;;16.00;79.00;;;;;;4973370;28;20145;-87
2021/05/23 12:37:49;;;;;;;2.35;0.75;;;16.20;77.70;;;;;;4963316;28;20134;-88
2021/05/23 12:40:19;;;;;;;2.25;0.75;;;16.40;73.50;;;;;;4973059;28;20049;-87
2021/05/23 12:42:46;;;;;;;1.63;0.40;;;16.60;73.60;;;;;;4973438;28;20531;-87
2021/05/23 12:45:15;;;;;;;4.28;0.98;;;16.70;72.10;;;;;;4956168;28;20762;-87
2021/05/23 12:47:54;;;;;;;2.20;0.50;;;16.80;68.40;;;;;;4974056;28;20140;-86
2021/05/23 12:50:35;;;;;;;2.05;0.57;;;16.80;67.80;;;;;;4973279;28;20444;-87
2021/05/23 12:53:02;;;;;;;2.25;0.60;;;16.90;65.90;;;;;;4973538;28;20563;-87
2021/05/23 12:55:30;;;;;;;2.13;0.73;;;16.80;65.10;;;;;;4973581;28;20143;-87
2021/05/23 12:57:58;;;;;;;1.60;0.55;;;16.70;65.00;;;;;;4973534;28;20129;-94
2021/05/23 13:00:29;;;;;;;1.83;0.57;;;16.60;67.20;;;;;;4956617;28;20059;-87
2021/05/23 13:03:04;;;;;;;2.92;0.50;;;16.50;66.30;;;;;;4972724;28;20055;-87